sensor_id;sensor_type;location;lat;lon;timestamp;P1;P2;P0
60816;PMS5003;51921;51.518;-3.188;2023-12-04T00:02:14;10;9;
60816;PMS5003;51921;51.518;-3.188;2023-12-04T00:04:40;12;12;
60816;PMS5003;51921;51.518;-3.188;2023-12-04T00:07:06;11;10;
60816;PMS5003;51921;51.518;-3.188;2023-12-04T00:09:31;14;11;
60816;PMS5003;51921;51.518;-3.188;2023-12-04T00:11:56;12;11;
60816;PMS5003;51921;51.518;-3.188;2023-12-04T00:14:22;10;10;
60816;PMS5003;51921;51.518;-3.188;2023-12-04T00:16:47;9;9;
60816;PMS5003;51921;51.518;-3.188;2023-12-04T00:19:13;9;8;
60816;PMS5003;51921;51.518;-3.188;2023-12-04T00:21:38;10;8;
60816;PMS5003;51921;51.518;-3.188;2023-12-04T00:24:04;8;7;
60816;PMS5003;51921;51.518;-3.188;2023-12-04T00:26:30;9;8;
60816;PMS5003;51921;51.518;-3.188;2023-12-04T00:28:55;4;4;
60816;PMS5003;51921;51.518;-3.188;2023-12-04T00:31:21;4;4;
60816;PMS5003;51921;51.518;-3.188;2023-12-04T00:33:46;3;3;
60816;PMS5003;51921;51.518;-3.188;2023-12-04T00:36:12;4;4;
60816;PMS5003;51921;51.518;-3.188;2023-12-04T00:38:37;3;3;
60816;PMS5003;51921;51.518;-3.188;2023-12-04T00:41:03;3;3;
60816;PMS5003;51921;51.518;-3.188;2023-12-04T00:43:28;2;2;
60816;PMS5003;51921;51.518;-3.188;2023-12-04T00:45:54;3;2;
60816;PMS5003;51921;51.518;-3.188;2023-12-04T00:48:20;3;3;
60816;PMS5003;51921;51.518;-3.188;2023-12-04T00:50:45;2;2;
60816;PMS5003;51921;51.518;-3.188;2023-12-04T00:53:11;2;2;
60816;PMS5003;51921;51.518;-3.188;2023-12-04T00:55:36;1;1;
60816;PMS5003;51921;51.518;-3.188;2023-12-04T00:58:02;2;2;
60816;PMS5003;51921;51.518;-3.188;2023-12-04T01:00:27;3;3;
60816;PMS5003;51921;51.518;-3.188;2023-12-04T01:02:53;1;1;
60816;PMS5003;51921;51.518;-3.188;2023-12-04T01:05:18;2;2;
60816;PMS5003;51921;51.518;-3.188;2023-12-04T01:07:44;2;1;
60816;PMS5003;51921;51.518;-3.188;2023-12-04T01:10:10;1;1;
60816;PMS5003;51921;51.518;-3.188;2023-12-04T01:12:35;1;1;
60816;PMS5003;51921;51.518;-3.188;2023-12-04T01:15:01;3;2;
60816;PMS5003;51921;51.518;-3.188;2023-12-04T01:17:26;1;1;
60816;PMS5003;51921;51.518;-3.188;2023-12-04T01:19:52;2;2;
60816;PMS5003;51921;51.518;-3.188;2023-12-04T01:22:17;2;2;
60816;PMS5003;51921;51.518;-3.188;2023-12-04T01:24:43;3;3;
60816;PMS5003;51921;51.518;-3.188;2023-12-04T01:27:08;2;2;
60816;PMS5003;51921;51.518;-3.188;2023-12-04T01:29:35;2;2;
60816;PMS5003;51921;51.518;-3.188;2023-12-04T01:32:00;3;3;
60816;PMS5003;51921;51.518;-3.188;2023-12-04T01:34:25;3;3;
60816;PMS5003;51921;51.518;-3.188;2023-12-04T01:36:51;4;3;
60816;PMS5003;51921;51.518;-3.188;2023-12-04T01:39:16;3;3;
60816;PMS5003;51921;51.518;-3.188;2023-12-04T01:41:42;3;3;
60816;PMS5003;51921;51.518;-3.188;2023-12-04T01:44:07;2;2;
60816;PMS5003;51921;51.518;-3.188;2023-12-04T01:46:33;1;1;
60816;PMS5003;51921;51.518;-3.188;2023-12-04T01:48:59;2;2;
60816;PMS5003;51921;51.518;-3.188;2023-12-04T01:51:24;1;1;
60816;PMS5003;51921;51.518;-3.188;2023-12-04T01:53:50;3;2;
60816;PMS5003;51921;51.518;-3.188;2023-12-04T01:56:15;2;2;
60816;PMS5003;51921;51.518;-3.188;2023-12-04T01:58:41;2;2;
60816;PMS5003;51921;51.518;-3.188;2023-12-04T02:01:06;2;2;
60816;PMS5003;51921;51.518;-3.188;2023-12-04T02:03:32;1;1;
60816;PMS5003;51921;51.518;-3.188;2023-12-04T02:05:58;2;1;
60816;PMS5003;51921;51.518;-3.188;2023-12-04T02:08:23;3;2;
60816;PMS5003;51921;51.518;-3.188;2023-12-04T02:10:49;2;2;
60816;PMS5003;51921;51.518;-3.188;2023-12-04T02:13:14;4;4;
60816;PMS5003;51921;51.518;-3.188;2023-12-04T02:15:40;4;3;
60816;PMS5003;51921;51.518;-3.188;2023-12-04T02:18:05;1;1;
60816;PMS5003;51921;51.518;-3.188;2023-12-04T02:20:31;3;2;
60816;PMS5003;51921;51.518;-3.188;2023-12-04T02:22:57;3;2;
60816;PMS5003;51921;51.518;-3.188;2023-12-04T02:25:22;2;2;
60816;PMS5003;51921;51.518;-3.188;2023-12-04T02:27:49;2;2;
60816;PMS5003;51921;51.518;-3.188;2023-12-04T02:30:13;2;2;
60816;PMS5003;51921;51.518;-3.188;2023-12-04T02:32:41;1;1;
60816;PMS5003;51921;51.518;-3.188;2023-12-04T02:35:05;2;2;
60816;PMS5003;51921;51.518;-3.188;2023-12-04T02:37:30;3;2;
60816;PMS5003;51921;51.518;-3.188;2023-12-04T02:39:55;1;1;
60816;PMS5003;51921;51.518;-3.188;2023-12-04T02:42:21;3;1;
60816;PMS5003;51921;51.518;-3.188;2023-12-04T02:44:47;1;1;
60816;PMS5003;51921;51.518;-3.188;2023-12-04T02:47:12;1;1;
60816;PMS5003;51921;51.518;-3.188;2023-12-04T02:49:38;1;1;
60816;PMS5003;51921;51.518;-3.188;2023-12-04T02:52:03;2;2;
60816;PMS5003;51921;51.518;-3.188;2023-12-04T02:54:29;3;2;
60816;PMS5003;51921;51.518;-3.188;2023-12-04T02:56:54;1;1;
60816;PMS5003;51921;51.518;-3.188;2023-12-04T02:59:20;2;2;
60816;PMS5003;51921;51.518;-3.188;2023-12-04T03:01:45;1;1;
60816;PMS5003;51921;51.518;-3.188;2023-12-04T03:04:11;1;1;
60816;PMS5003;51921;51.518;-3.188;2023-12-04T03:06:36;1;1;
60816;PMS5003;51921;51.518;-3.188;2023-12-04T03:09:02;0;0;
60816;PMS5003;51921;51.518;-3.188;2023-12-04T03:11:27;0;0;
60816;PMS5003;51921;51.518;-3.188;2023-12-04T03:13:53;0;0;
60816;PMS5003;51921;51.518;-3.188;2023-12-04T03:16:18;1;1;
60816;PMS5003;51921;51.518;-3.188;2023-12-04T03:18:44;0;0;
60816;PMS5003;51921;51.518;-3.188;2023-12-04T03:21:09;1;1;
60816;PMS5003;51921;51.518;-3.188;2023-12-04T03:23:35;2;1;
60816;PMS5003;51921;51.518;-3.188;2023-12-04T03:26:00;0;0;
60816;PMS5003;51921;51.518;-3.188;2023-12-04T03:28:26;1;1;
60816;PMS5003;51921;51.518;-3.188;2023-12-04T03:30:51;1;0;
60816;PMS5003;51921;51.518;-3.188;2023-12-04T03:33:17;1;1;
60816;PMS5003;51921;51.518;-3.188;2023-12-04T03:35:42;1;1;
60816;PMS5003;51921;51.518;-3.188;2023-12-04T03:38:08;0;0;
60816;PMS5003;51921;51.518;-3.188;2023-12-04T03:40:33;2;2;
60816;PMS5003;51921;51.518;-3.188;2023-12-04T03:42:58;1;1;
60816;PMS5003;51921;51.518;-3.188;2023-12-04T03:45:24;1;1;
60816;PMS5003;51921;51.518;-3.188;2023-12-04T03:47:49;1;1;
60816;PMS5003;51921;51.518;-3.188;2023-12-04T03:50:15;2;1;
60816;PMS5003;51921;51.518;-3.188;2023-12-04T03:52:40;1;1;
60816;PMS5003;51921;51.518;-3.188;2023-12-04T03:55:06;0;0;
60816;PMS5003;51921;51.518;-3.188;2023-12-04T03:57:31;1;1;
60816;PMS5003;51921;51.518;-3.188;2023-12-04T03:59:57;1;1;
60816;PMS5003;51921;51.518;-3.188;2023-12-04T04:02:22;1;1;
60816;PMS5003;51921;51.518;-3.188;2023-12-04T04:04:48;1;1;
60816;PMS5003;51921;51.518;-3.188;2023-12-04T04:07:15;1;1;
60816;PMS5003;51921;51.518;-3.188;2023-12-04T04:09:39;2;2;
60816;PMS5003;51921;51.518;-3.188;2023-12-04T04:12:04;1;1;
60816;PMS5003;51921;51.518;-3.188;2023-12-04T04:14:30;2;1;
60816;PMS5003;51921;51.518;-3.188;2023-12-04T04:16:55;2;1;
60816;PMS5003;51921;51.518;-3.188;2023-12-04T04:19:21;1;1;
60816;PMS5003;51921;51.518;-3.188;2023-12-04T04:21:46;2;2;
60816;PMS5003;51921;51.518;-3.188;2023-12-04T04:24:12;1;1;
60816;PMS5003;51921;51.518;-3.188;2023-12-04T04:26:37;1;1;
60816;PMS5003;51921;51.518;-3.188;2023-12-04T04:29:03;2;2;
60816;PMS5003;51921;51.518;-3.188;2023-12-04T04:31:28;2;2;
60816;PMS5003;51921;51.518;-3.188;2023-12-04T04:33:54;3;3;
60816;PMS5003;51921;51.518;-3.188;2023-12-04T04:36:19;2;2;
60816;PMS5003;51921;51.518;-3.188;2023-12-04T04:38:45;2;2;
60816;PMS5003;51921;51.518;-3.188;2023-12-04T04:41:12;5;5;
60816;PMS5003;51921;51.518;-3.188;2023-12-04T04:43:36;5;4;
60816;PMS5003;51921;51.518;-3.188;2023-12-04T04:46:01;1;1;
60816;PMS5003;51921;51.518;-3.188;2023-12-04T04:48:27;3;3;
60816;PMS5003;51921;51.518;-3.188;2023-12-04T04:50:52;5;4;
60816;PMS5003;51921;51.518;-3.188;2023-12-04T04:53:18;3;3;
60816;PMS5003;51921;51.518;-3.188;2023-12-04T04:55:43;1;1;
60816;PMS5003;51921;51.518;-3.188;2023-12-04T04:58:09;3;3;
60816;PMS5003;51921;51.518;-3.188;2023-12-04T05:00:34;3;3;
60816;PMS5003;51921;51.518;-3.188;2023-12-04T05:03:00;3;3;
60816;PMS5003;51921;51.518;-3.188;2023-12-04T05:05:25;4;3;
60816;PMS5003;51921;51.518;-3.188;2023-12-04T05:07:51;4;4;
60816;PMS5003;51921;51.518;-3.188;2023-12-04T05:10:16;3;3;
60816;PMS5003;51921;51.518;-3.188;2023-12-04T05:12:42;4;3;
60816;PMS5003;51921;51.518;-3.188;2023-12-04T05:15:08;3;3;
60816;PMS5003;51921;51.518;-3.188;2023-12-04T05:17:33;4;4;
60816;PMS5003;51921;51.518;-3.188;2023-12-04T05:19:59;4;4;
60816;PMS5003;51921;51.518;-3.188;2023-12-04T05:22:24;4;4;
60816;PMS5003;51921;51.518;-3.188;2023-12-04T05:24:50;5;5;
60816;PMS5003;51921;51.518;-3.188;2023-12-04T05:27:15;4;4;
60816;PMS5003;51921;51.518;-3.188;2023-12-04T05:29:41;5;5;
60816;PMS5003;51921;51.518;-3.188;2023-12-04T05:32:06;5;5;
60816;PMS5003;51921;51.518;-3.188;2023-12-04T05:34:32;7;5;
60816;PMS5003;51921;51.518;-3.188;2023-12-04T05:36:57;3;3;
60816;PMS5003;51921;51.518;-3.188;2023-12-04T05:39:23;5;4;
60816;PMS5003;51921;51.518;-3.188;2023-12-04T05:41:49;4;4;
60816;PMS5003;51921;51.518;-3.188;2023-12-04T05:44:14;5;4;
60816;PMS5003;51921;51.518;-3.188;2023-12-04T05:46:40;4;4;
60816;PMS5003;51921;51.518;-3.188;2023-12-04T05:49:05;5;4;
60816;PMS5003;51921;51.518;-3.188;2023-12-04T05:51:31;4;4;
60816;PMS5003;51921;51.518;-3.188;2023-12-04T05:53:56;4;4;
60816;PMS5003;51921;51.518;-3.188;2023-12-04T05:56:22;5;4;
60816;PMS5003;51921;51.518;-3.188;2023-12-04T05:58:48;4;4;
60816;PMS5003;51921;51.518;-3.188;2023-12-04T06:01:14;4;4;
60816;PMS5003;51921;51.518;-3.188;2023-12-04T06:03:39;4;4;
60816;PMS5003;51921;51.518;-3.188;2023-12-04T06:06:05;4;4;
60816;PMS5003;51921;51.518;-3.188;2023-12-04T06:08:30;3;3;
60816;PMS5003;51921;51.518;-3.188;2023-12-04T06:10:56;5;5;
60816;PMS5003;51921;51.518;-3.188;2023-12-04T06:13:21;5;5;
60816;PMS5003;51921;51.518;-3.188;2023-12-04T06:15:47;4;4;
60816;PMS5003;51921;51.518;-3.188;2023-12-04T06:18:12;4;4;
60816;PMS5003;51921;51.518;-3.188;2023-12-04T06:20:38;4;4;
60816;PMS5003;51921;51.518;-3.188;2023-12-04T06:23:03;5;4;
60816;PMS5003;51921;51.518;-3.188;2023-12-04T06:25:29;4;3;
60816;PMS5003;51921;51.518;-3.188;2023-12-04T06:27:55;1;1;
60816;PMS5003;51921;51.518;-3.188;2023-12-04T06:30:20;4;3;
60816;PMS5003;51921;51.518;-3.188;2023-12-04T06:32:46;3;3;
60816;PMS5003;51921;51.518;-3.188;2023-12-04T06:35:11;3;3;
60816;PMS5003;51921;51.518;-3.188;2023-12-04T06:37:37;5;3;
60816;PMS5003;51921;51.518;-3.188;2023-12-04T06:40:02;3;3;
60816;PMS5003;51921;51.518;-3.188;2023-12-04T06:42:28;4;3;
60816;PMS5003;51921;51.518;-3.188;2023-12-04T06:44:53;3;3;
60816;PMS5003;51921;51.518;-3.188;2023-12-04T06:47:19;4;3;
60816;PMS5003;51921;51.518;-3.188;2023-12-04T06:49:44;4;4;
60816;PMS5003;51921;51.518;-3.188;2023-12-04T06:52:10;4;3;
60816;PMS5003;51921;51.518;-3.188;2023-12-04T06:54:35;3;3;
60816;PMS5003;51921;51.518;-3.188;2023-12-04T06:57:01;4;4;
60816;PMS5003;51921;51.518;-3.188;2023-12-04T06:59:26;4;4;
60816;PMS5003;51921;51.518;-3.188;2023-12-04T07:01:52;4;4;
60816;PMS5003;51921;51.518;-3.188;2023-12-04T07:04:17;6;5;
60816;PMS5003;51921;51.518;-3.188;2023-12-04T07:06:43;5;5;
60816;PMS5003;51921;51.518;-3.188;2023-12-04T07:09:08;5;5;
60816;PMS5003;51921;51.518;-3.188;2023-12-04T07:11:34;7;6;
60816;PMS5003;51921;51.518;-3.188;2023-12-04T07:13:59;4;4;
60816;PMS5003;51921;51.518;-3.188;2023-12-04T07:16:25;4;4;
60816;PMS5003;51921;51.518;-3.188;2023-12-04T07:18:50;2;2;
60816;PMS5003;51921;51.518;-3.188;2023-12-04T07:21:16;3;2;
60816;PMS5003;51921;51.518;-3.188;2023-12-04T07:23:41;5;5;
60816;PMS5003;51921;51.518;-3.188;2023-12-04T07:26:07;7;6;
60816;PMS5003;51921;51.518;-3.188;2023-12-04T07:28:32;8;5;
60816;PMS5003;51921;51.518;-3.188;2023-12-04T07:30:58;6;5;
60816;PMS5003;51921;51.518;-3.188;2023-12-04T07:33:23;6;6;
60816;PMS5003;51921;51.518;-3.188;2023-12-04T07:35:49;9;8;
60816;PMS5003;51921;51.518;-3.188;2023-12-04T07:38:15;9;8;
60816;PMS5003;51921;51.518;-3.188;2023-12-04T07:40:40;7;6;
60816;PMS5003;51921;51.518;-3.188;2023-12-04T07:43:06;6;5;
60816;PMS5003;51921;51.518;-3.188;2023-12-04T07:45:31;4;4;
60816;PMS5003;51921;51.518;-3.188;2023-12-04T07:47:57;4;3;
60816;PMS5003;51921;51.518;-3.188;2023-12-04T07:50:22;5;4;
60816;PMS5003;51921;51.518;-3.188;2023-12-04T07:52:48;5;4;
60816;PMS5003;51921;51.518;-3.188;2023-12-04T07:55:13;5;4;
60816;PMS5003;51921;51.518;-3.188;2023-12-04T07:57:39;4;4;
60816;PMS5003;51921;51.518;-3.188;2023-12-04T08:00:05;6;5;
60816;PMS5003;51921;51.518;-3.188;2023-12-04T08:02:30;7;6;
60816;PMS5003;51921;51.518;-3.188;2023-12-04T08:04:55;5;5;
60816;PMS5003;51921;51.518;-3.188;2023-12-04T08:07:21;10;9;
60816;PMS5003;51921;51.518;-3.188;2023-12-04T08:09:46;8;5;
60816;PMS5003;51921;51.518;-3.188;2023-12-04T08:12:12;4;4;
60816;PMS5003;51921;51.518;-3.188;2023-12-04T08:14:37;6;6;
60816;PMS5003;51921;51.518;-3.188;2023-12-04T08:17:02;7;7;
60816;PMS5003;51921;51.518;-3.188;2023-12-04T08:19:28;6;6;
60816;PMS5003;51921;51.518;-3.188;2023-12-04T08:21:53;7;6;
60816;PMS5003;51921;51.518;-3.188;2023-12-04T08:24:19;7;6;
60816;PMS5003;51921;51.518;-3.188;2023-12-04T08:26:44;6;6;
60816;PMS5003;51921;51.518;-3.188;2023-12-04T08:29:10;9;7;
60816;PMS5003;51921;51.518;-3.188;2023-12-04T08:31:35;7;7;
60816;PMS5003;51921;51.518;-3.188;2023-12-04T08:34:01;9;9;
60816;PMS5003;51921;51.518;-3.188;2023-12-04T08:36:26;7;7;
60816;PMS5003;51921;51.518;-3.188;2023-12-04T08:38:52;11;9;
60816;PMS5003;51921;51.518;-3.188;2023-12-04T08:41:17;7;7;
60816;PMS5003;51921;51.518;-3.188;2023-12-04T08:43:43;9;8;
60816;PMS5003;51921;51.518;-3.188;2023-12-04T08:46:11;10;7;
60816;PMS5003;51921;51.518;-3.188;2023-12-04T08:48:34;7;7;
60816;PMS5003;51921;51.518;-3.188;2023-12-04T08:51:00;8;8;
60816;PMS5003;51921;51.518;-3.188;2023-12-04T08:53:25;8;7;
60816;PMS5003;51921;51.518;-3.188;2023-12-04T08:55:51;10;9;
60816;PMS5003;51921;51.518;-3.188;2023-12-04T08:58:16;10;8;
60816;PMS5003;51921;51.518;-3.188;2023-12-04T09:00:42;10;10;
60816;PMS5003;51921;51.518;-3.188;2023-12-04T09:03:08;9;8;
60816;PMS5003;51921;51.518;-3.188;2023-12-04T09:05:33;7;6;
60816;PMS5003;51921;51.518;-3.188;2023-12-04T09:07:59;8;7;
60816;PMS5003;51921;51.518;-3.188;2023-12-04T09:10:24;8;8;
60816;PMS5003;51921;51.518;-3.188;2023-12-04T09:12:50;6;6;
60816;PMS5003;51921;51.518;-3.188;2023-12-04T09:15:15;6;6;
60816;PMS5003;51921;51.518;-3.188;2023-12-04T09:17:41;6;6;
60816;PMS5003;51921;51.518;-3.188;2023-12-04T09:20:07;7;7;
60816;PMS5003;51921;51.518;-3.188;2023-12-04T09:22:32;9;8;
60816;PMS5003;51921;51.518;-3.188;2023-12-04T09:24:58;9;8;
60816;PMS5003;51921;51.518;-3.188;2023-12-04T09:27:23;7;7;
60816;PMS5003;51921;51.518;-3.188;2023-12-04T09:29:49;8;8;
60816;PMS5003;51921;51.518;-3.188;2023-12-04T09:32:14;10;9;
60816;PMS5003;51921;51.518;-3.188;2023-12-04T09:34:40;8;8;
60816;PMS5003;51921;51.518;-3.188;2023-12-04T09:37:06;9;8;
60816;PMS5003;51921;51.518;-3.188;2023-12-04T09:39:31;10;10;
60816;PMS5003;51921;51.518;-3.188;2023-12-04T09:41:57;11;10;
60816;PMS5003;51921;51.518;-3.188;2023-12-04T09:44:22;10;10;
60816;PMS5003;51921;51.518;-3.188;2023-12-04T09:46:48;8;8;
60816;PMS5003;51921;51.518;-3.188;2023-12-04T09:49:13;9;9;
60816;PMS5003;51921;51.518;-3.188;2023-12-04T09:51:39;10;9;
60816;PMS5003;51921;51.518;-3.188;2023-12-04T09:54:05;10;10;
60816;PMS5003;51921;51.518;-3.188;2023-12-04T09:56:31;9;9;
60816;PMS5003;51921;51.518;-3.188;2023-12-04T09:58:57;10;10;
60816;PMS5003;51921;51.518;-3.188;2023-12-04T10:01:21;11;11;
60816;PMS5003;51921;51.518;-3.188;2023-12-04T10:03:47;13;11;
60816;PMS5003;51921;51.518;-3.188;2023-12-04T10:06:14;9;9;
60816;PMS5003;51921;51.518;-3.188;2023-12-04T10:08:38;10;9;
60816;PMS5003;51921;51.518;-3.188;2023-12-04T10:11:04;8;8;
60816;PMS5003;51921;51.518;-3.188;2023-12-04T10:13:29;9;8;
60816;PMS5003;51921;51.518;-3.188;2023-12-04T10:15:55;6;6;
60816;PMS5003;51921;51.518;-3.188;2023-12-04T10:18:24;8;8;
60816;PMS5003;51921;51.518;-3.188;2023-12-04T10:20:51;9;8;
60816;PMS5003;51921;51.518;-3.188;2023-12-04T10:23:11;5;5;
60816;PMS5003;51921;51.518;-3.188;2023-12-04T10:25:37;8;8;
60816;PMS5003;51921;51.518;-3.188;2023-12-04T10:28:07;7;7;
60816;PMS5003;51921;51.518;-3.188;2023-12-04T10:30:29;6;6;
60816;PMS5003;51921;51.518;-3.188;2023-12-04T10:32:54;10;7;
60816;PMS5003;51921;51.518;-3.188;2023-12-04T10:35:19;11;8;
60816;PMS5003;51921;51.518;-3.188;2023-12-04T10:37:45;12;12;
60816;PMS5003;51921;51.518;-3.188;2023-12-04T10:40:10;12;11;
60816;PMS5003;51921;51.518;-3.188;2023-12-04T10:42:36;11;10;
60816;PMS5003;51921;51.518;-3.188;2023-12-04T10:45:01;8;7;
60816;PMS5003;51921;51.518;-3.188;2023-12-04T10:47:28;9;8;
60816;PMS5003;51921;51.518;-3.188;2023-12-04T10:49:52;11;10;
60816;PMS5003;51921;51.518;-3.188;2023-12-04T10:52:18;8;8;
60816;PMS5003;51921;51.518;-3.188;2023-12-04T10:54:44;7;7;
60816;PMS5003;51921;51.518;-3.188;2023-12-04T10:57:09;9;6;
60816;PMS5003;51921;51.518;-3.188;2023-12-04T10:59:36;7;7;
60816;PMS5003;51921;51.518;-3.188;2023-12-04T11:02:00;6;6;
60816;PMS5003;51921;51.518;-3.188;2023-12-04T11:04:26;7;6;
60816;PMS5003;51921;51.518;-3.188;2023-12-04T11:06:52;7;6;
60816;PMS5003;51921;51.518;-3.188;2023-12-04T11:09:17;9;7;
60816;PMS5003;51921;51.518;-3.188;2023-12-04T11:11:43;13;13;
60816;PMS5003;51921;51.518;-3.188;2023-12-04T11:14:08;10;9;
60816;PMS5003;51921;51.518;-3.188;2023-12-04T11:16:34;8;8;
60816;PMS5003;51921;51.518;-3.188;2023-12-04T11:19:00;15;14;
60816;PMS5003;51921;51.518;-3.188;2023-12-04T11:21:25;13;11;
60816;PMS5003;51921;51.518;-3.188;2023-12-04T11:23:50;10;10;
60816;PMS5003;51921;51.518;-3.188;2023-12-04T11:26:16;11;11;
60816;PMS5003;51921;51.518;-3.188;2023-12-04T11:28:41;8;8;
60816;PMS5003;51921;51.518;-3.188;2023-12-04T11:31:07;5;5;
60816;PMS5003;51921;51.518;-3.188;2023-12-04T11:33:34;6;6;
60816;PMS5003;51921;51.518;-3.188;2023-12-04T11:38:24;7;7;
60816;PMS5003;51921;51.518;-3.188;2023-12-04T11:40:50;8;8;
60816;PMS5003;51921;51.518;-3.188;2023-12-04T11:43:21;7;7;
60816;PMS5003;51921;51.518;-3.188;2023-12-04T11:45:40;9;9;
60816;PMS5003;51921;51.518;-3.188;2023-12-04T11:48:06;6;6;
60816;PMS5003;51921;51.518;-3.188;2023-12-04T11:50:31;7;6;
60816;PMS5003;51921;51.518;-3.188;2023-12-04T11:52:57;4;4;
60816;PMS5003;51921;51.518;-3.188;2023-12-04T11:55:23;6;6;
60816;PMS5003;51921;51.518;-3.188;2023-12-04T11:57:49;7;6;
60816;PMS5003;51921;51.518;-3.188;2023-12-04T12:00:19;6;5;
60816;PMS5003;51921;51.518;-3.188;2023-12-04T12:02:40;5;5;
60816;PMS5003;51921;51.518;-3.188;2023-12-04T12:05:05;5;5;
60816;PMS5003;51921;51.518;-3.188;2023-12-04T12:07:30;4;4;
60816;PMS5003;51921;51.518;-3.188;2023-12-04T12:09:56;4;4;
60816;PMS5003;51921;51.518;-3.188;2023-12-04T12:12:21;4;4;
60816;PMS5003;51921;51.518;-3.188;2023-12-04T12:14:47;5;5;
60816;PMS5003;51921;51.518;-3.188;2023-12-04T12:17:13;4;4;
60816;PMS5003;51921;51.518;-3.188;2023-12-04T12:19:38;3;3;
60816;PMS5003;51921;51.518;-3.188;2023-12-04T12:22:04;4;3;
60816;PMS5003;51921;51.518;-3.188;2023-12-04T12:24:29;4;4;
60816;PMS5003;51921;51.518;-3.188;2023-12-04T12:26:55;5;4;
60816;PMS5003;51921;51.518;-3.188;2023-12-04T12:29:20;4;4;
60816;PMS5003;51921;51.518;-3.188;2023-12-04T12:31:46;4;4;
60816;PMS5003;51921;51.518;-3.188;2023-12-04T12:34:12;3;3;
60816;PMS5003;51921;51.518;-3.188;2023-12-04T12:36:37;4;4;
60816;PMS5003;51921;51.518;-3.188;2023-12-04T12:39:03;3;3;
60816;PMS5003;51921;51.518;-3.188;2023-12-04T12:41:28;3;3;
60816;PMS5003;51921;51.518;-3.188;2023-12-04T12:43:54;4;4;
60816;PMS5003;51921;51.518;-3.188;2023-12-04T12:46:20;3;3;
60816;PMS5003;51921;51.518;-3.188;2023-12-04T12:48:46;3;3;
60816;PMS5003;51921;51.518;-3.188;2023-12-04T12:51:11;2;2;
60816;PMS5003;51921;51.518;-3.188;2023-12-04T12:53:36;2;2;
60816;PMS5003;51921;51.518;-3.188;2023-12-04T12:56:02;3;3;
60816;PMS5003;51921;51.518;-3.188;2023-12-04T12:58:28;4;3;
60816;PMS5003;51921;51.518;-3.188;2023-12-04T13:00:53;6;5;
60816;PMS5003;51921;51.518;-3.188;2023-12-04T13:03:19;2;2;
60816;PMS5003;51921;51.518;-3.188;2023-12-04T13:05:44;3;3;
60816;PMS5003;51921;51.518;-3.188;2023-12-04T13:08:10;3;3;
60816;PMS5003;51921;51.518;-3.188;2023-12-04T13:10:35;2;2;
60816;PMS5003;51921;51.518;-3.188;2023-12-04T13:13:01;2;2;
60816;PMS5003;51921;51.518;-3.188;2023-12-04T13:15:27;2;2;
60816;PMS5003;51921;51.518;-3.188;2023-12-04T13:17:52;4;4;
60816;PMS5003;51921;51.518;-3.188;2023-12-04T13:20:18;2;2;
60816;PMS5003;51921;51.518;-3.188;2023-12-04T13:22:43;4;4;
60816;PMS5003;51921;51.518;-3.188;2023-12-04T13:25:09;3;3;
60816;PMS5003;51921;51.518;-3.188;2023-12-04T13:27:35;2;2;
60816;PMS5003;51921;51.518;-3.188;2023-12-04T13:30:00;3;3;
60816;PMS5003;51921;51.518;-3.188;2023-12-04T13:32:26;2;2;
60816;PMS5003;51921;51.518;-3.188;2023-12-04T13:34:51;3;3;
60816;PMS5003;51921;51.518;-3.188;2023-12-04T13:37:17;1;1;
60816;PMS5003;51921;51.518;-3.188;2023-12-04T13:39:43;4;3;
60816;PMS5003;51921;51.518;-3.188;2023-12-04T13:42:08;2;2;
60816;PMS5003;51921;51.518;-3.188;2023-12-04T13:44:34;1;1;
60816;PMS5003;51921;51.518;-3.188;2023-12-04T13:46:59;1;1;
60816;PMS5003;51921;51.518;-3.188;2023-12-04T13:49:25;2;2;
60816;PMS5003;51921;51.518;-3.188;2023-12-04T13:51:51;2;2;
60816;PMS5003;51921;51.518;-3.188;2023-12-04T13:54:16;2;2;
60816;PMS5003;51921;51.518;-3.188;2023-12-04T13:56:42;3;3;
60816;PMS5003;51921;51.518;-3.188;2023-12-04T13:59:07;3;3;
60816;PMS5003;51921;51.518;-3.188;2023-12-04T14:01:33;3;2;
60816;PMS5003;51921;51.518;-3.188;2023-12-04T14:03:59;2;2;
60816;PMS5003;51921;51.518;-3.188;2023-12-04T14:06:24;4;3;
60816;PMS5003;51921;51.518;-3.188;2023-12-04T14:08:50;1;1;
60816;PMS5003;51921;51.518;-3.188;2023-12-04T14:11:15;1;1;
60816;PMS5003;51921;51.518;-3.188;2023-12-04T14:13:41;2;2;
60816;PMS5003;51921;51.518;-3.188;2023-12-04T14:16:07;2;2;
60816;PMS5003;51921;51.518;-3.188;2023-12-04T14:18:32;3;3;
60816;PMS5003;51921;51.518;-3.188;2023-12-04T14:20:58;2;2;
60816;PMS5003;51921;51.518;-3.188;2023-12-04T14:23:23;2;2;
60816;PMS5003;51921;51.518;-3.188;2023-12-04T14:25:49;4;4;
60816;PMS5003;51921;51.518;-3.188;2023-12-04T14:28:15;4;4;
60816;PMS5003;51921;51.518;-3.188;2023-12-04T14:30:40;4;4;
60816;PMS5003;51921;51.518;-3.188;2023-12-04T14:33:06;6;6;
60816;PMS5003;51921;51.518;-3.188;2023-12-04T14:35:32;4;4;
60816;PMS5003;51921;51.518;-3.188;2023-12-04T14:37:57;4;4;
60816;PMS5003;51921;51.518;-3.188;2023-12-04T14:40:23;4;3;
60816;PMS5003;51921;51.518;-3.188;2023-12-04T14:42:49;4;3;
60816;PMS5003;51921;51.518;-3.188;2023-12-04T14:45:14;4;4;
60816;PMS5003;51921;51.518;-3.188;2023-12-04T14:47:40;5;5;
60816;PMS5003;51921;51.518;-3.188;2023-12-04T14:50:06;6;6;
60816;PMS5003;51921;51.518;-3.188;2023-12-04T14:52:31;6;6;
60816;PMS5003;51921;51.518;-3.188;2023-12-04T14:54:56;8;7;
60816;PMS5003;51921;51.518;-3.188;2023-12-04T14:57:22;3;3;
60816;PMS5003;51921;51.518;-3.188;2023-12-04T14:59:48;5;5;
60816;PMS5003;51921;51.518;-3.188;2023-12-04T15:02:13;6;6;
60816;PMS5003;51921;51.518;-3.188;2023-12-04T15:04:39;4;4;
60816;PMS5003;51921;51.518;-3.188;2023-12-04T15:07:04;4;4;
60816;PMS5003;51921;51.518;-3.188;2023-12-04T15:09:31;7;7;
60816;PMS5003;51921;51.518;-3.188;2023-12-04T15:11:55;4;4;
60816;PMS5003;51921;51.518;-3.188;2023-12-04T15:14:21;5;5;
60816;PMS5003;51921;51.518;-3.188;2023-12-04T15:16:47;6;6;
60816;PMS5003;51921;51.518;-3.188;2023-12-04T15:19:12;12;11;
60816;PMS5003;51921;51.518;-3.188;2023-12-04T15:21:38;7;6;
60816;PMS5003;51921;51.518;-3.188;2023-12-04T15:24:03;7;7;
60816;PMS5003;51921;51.518;-3.188;2023-12-04T15:26:29;6;6;
60816;PMS5003;51921;51.518;-3.188;2023-12-04T15:28:54;8;7;
60816;PMS5003;51921;51.518;-3.188;2023-12-04T15:31:20;7;7;
60816;PMS5003;51921;51.518;-3.188;2023-12-04T15:33:46;6;6;
60816;PMS5003;51921;51.518;-3.188;2023-12-04T15:36:11;6;6;
60816;PMS5003;51921;51.518;-3.188;2023-12-04T15:38:37;7;5;
60816;PMS5003;51921;51.518;-3.188;2023-12-04T15:41:03;5;5;
60816;PMS5003;51921;51.518;-3.188;2023-12-04T15:43:28;7;7;
60816;PMS5003;51921;51.518;-3.188;2023-12-04T15:45:54;6;6;
60816;PMS5003;51921;51.518;-3.188;2023-12-04T15:48:19;8;8;
60816;PMS5003;51921;51.518;-3.188;2023-12-04T15:50:45;9;7;
60816;PMS5003;51921;51.518;-3.188;2023-12-04T15:53:10;7;7;
60816;PMS5003;51921;51.518;-3.188;2023-12-04T15:55:36;9;9;
60816;PMS5003;51921;51.518;-3.188;2023-12-04T15:58:02;8;8;
60816;PMS5003;51921;51.518;-3.188;2023-12-04T16:00:27;10;10;
60816;PMS5003;51921;51.518;-3.188;2023-12-04T16:02:53;10;10;
60816;PMS5003;51921;51.518;-3.188;2023-12-04T16:05:18;9;9;
60816;PMS5003;51921;51.518;-3.188;2023-12-04T16:07:44;9;8;
60816;PMS5003;51921;51.518;-3.188;2023-12-04T16:10:10;10;9;
60816;PMS5003;51921;51.518;-3.188;2023-12-04T16:12:36;9;9;
60816;PMS5003;51921;51.518;-3.188;2023-12-04T16:15:01;8;8;
60816;PMS5003;51921;51.518;-3.188;2023-12-04T16:17:27;12;11;
60816;PMS5003;51921;51.518;-3.188;2023-12-04T16:19:52;10;9;
60816;PMS5003;51921;51.518;-3.188;2023-12-04T16:22:18;14;12;